O'Neill, NE

6:44 AM CDT on May 25, 2018 (GMT -0500)
The O'Neill Municipal-Baker

Weather History for KONL - November, 2013

Change the Weather History Date:

Saturday, November 9, 2013

  Actual Average Record
Temperature  
Mean Temperature 46 °F -  
Max Temperature 55 °F 44 °F 78 °F (2001)
Min Temperature 37 °F 26 °F 10 °F (1960)
Degree Days  
Heating Degree Days 19    
Moisture  
Dew Point 29 °F    
Average Humidity 55    
Maximum Humidity 70    
Minimum Humidity 39    
Precipitation  
Precipitation 0.00 in - - ()
Sea Level Pressure  
Sea Level Pressure 30.15 in    
Wind  
Wind Speed 11 mph (NW)    
Max Wind Speed 21 mph    
Max Gust Speed 26 mph    
Visibility 10 miles    
Events      
Averages and records for this station are not official NWS values.
T = Trace of Precipitation, MM = Missing Value Source: NWS Daily Summary

Daily Weather History Graph

Daily Weather History Graph

Search for Another Location

Airport or City:

Astronomy

Nov. 09, 2013 Rise Set
Actual Time 7:18 AM CST 5:18 PM CST
Civil Twilight 6:48 AM CST 5:47 PM CST
Nautical Twilight 6:15 AM CST 6:21 PM CST
Astronomical Twilight 5:42 AM CST 6:54 PM CST
Moon 12:55 PM CST (11/9) 11:51 PM CST (11/9)
Length of Visible Light 10h 59m
Length of Day
9h 59m
Waxing Crescent, 44% of the Moon is Illuminated
Nov 9
Waxing Crescent
Nov 9
First Quarter
Nov 17
Full
Nov 25
Last Quarter
Dec 2
New

Hourly Weather History & Observations

Time (CST) Temp. Windchill Dew Point Humidity Pressure Visibility Wind Dir Wind Speed Gust Speed Precip Events Conditions
12:15 AM 39.6 °F 33.5 °F 28.9 °F 66% 29.93 in 10.0 mi West 9.2 mph - N/A   Clear
12:35 AM 39.2 °F 33.0 °F 28.9 °F 67% 29.93 in 10.0 mi West 9.2 mph - N/A   Clear
12:55 AM 39.7 °F 32.7 °F 28.8 °F 65% 29.95 in 10.0 mi West 11.5 mph - N/A   Clear
1:15 AM 40.3 °F 33.4 °F 28.4 °F 63% 29.95 in 10.0 mi West 11.5 mph - N/A   Clear
1:35 AM 40.3 °F 33.9 °F 28.2 °F 62% 29.95 in 10.0 mi West 10.4 mph - N/A   Clear
1:55 AM 39.7 °F 32.3 °F 28.4 °F 64% 29.96 in 10.0 mi West 12.7 mph - N/A   Clear
2:15 AM 40.3 °F 33.0 °F 28.6 °F 63% 29.97 in 10.0 mi WNW 12.7 mph - N/A   Clear
2:35 AM 41.5 °F 34.6 °F 28.4 °F 60% 29.97 in 10.0 mi WNW 12.7 mph - N/A   Clear
2:55 AM 42.3 °F 35.1 °F 28.2 °F 58% 29.97 in 10.0 mi WNW 13.8 mph - N/A   Clear
3:15 AM 43.0 °F 35.7 °F 28.0 °F 56% 29.97 in 10.0 mi WNW 15.0 mph - N/A   Clear
3:35 AM 44.1 °F 37.1 °F 27.5 °F 52% 29.97 in 10.0 mi WNW 15.0 mph 21.9 mph N/A   Clear
3:55 AM 43.9 °F 36.8 °F 27.5 °F 53% 29.98 in 10.0 mi West 15.0 mph - N/A   Clear
4:15 AM 42.6 °F 36.8 °F 28.0 °F 56% 29.99 in 10.0 mi West 10.4 mph - N/A   Clear
4:35 AM 41.0 °F 35.2 °F 28.2 °F 60% 30.00 in 10.0 mi West 9.2 mph - N/A   Clear
4:55 AM 40.5 °F 34.1 °F 28.4 °F 62% 30.01 in 10.0 mi West 10.4 mph - N/A   Clear
5:15 AM 39.7 °F 34.3 °F 28.2 °F 63% 30.02 in 10.0 mi West 8.1 mph - N/A   Clear
5:35 AM 39.2 °F 33.6 °F 28.2 °F 65% 30.03 in 10.0 mi WNW 8.1 mph - N/A   Clear
5:55 AM 38.3 °F 32.5 °F 28.2 °F 67% 30.04 in 10.0 mi WNW 8.1 mph - N/A   Clear
6:15 AM 37.6 °F 30.5 °F 28.0 °F 68% 30.04 in 10.0 mi West 10.4 mph - N/A   Clear
6:35 AM 37.0 °F 30.4 °F 28.2 °F 70% 30.06 in 10.0 mi West 9.2 mph - N/A   Clear
6:55 AM 37.0 °F 30.4 °F 28.0 °F 70% 30.07 in 10.0 mi West 9.2 mph - N/A   Clear
7:15 AM 37.6 °F 30.5 °F 28.0 °F 68% 30.07 in 10.0 mi West 10.4 mph - N/A   Clear
7:35 AM 37.4 °F 30.8 °F 28.2 °F 69% 30.09 in 10.0 mi West 9.2 mph - N/A   Clear
7:55 AM 37.8 °F 31.8 °F 28.6 °F 69% 30.10 in 10.0 mi WNW 8.1 mph - N/A   Clear
8:15 AM 39.4 °F 33.8 °F 29.1 °F 67% 30.10 in 10.0 mi West 8.1 mph - N/A   Clear
8:35 AM 41.0 °F 35.8 °F 30.0 °F 65% 30.11 in 10.0 mi West 8.1 mph - N/A   Clear
8:55 AM 43.2 °F 37.4 °F 30.9 °F 62% 30.12 in 10.0 mi WNW 10.4 mph - N/A   Clear
9:15 AM 45.5 °F 39.6 °F 31.1 °F 57% 30.12 in 10.0 mi WNW 12.7 mph - N/A   Clear
9:35 AM 47.3 °F - 31.1 °F 53% 30.13 in 10.0 mi WNW 13.8 mph - N/A   Clear
9:55 AM 48.2 °F - 31.1 °F 52% 30.14 in 10.0 mi NW 13.8 mph - N/A   Clear
10:15 AM 49.3 °F - 31.6 °F 51% 30.15 in 10.0 mi NW 15.0 mph - N/A   Clear
10:35 AM 50.9 °F - 32.0 °F 48% 30.15 in 10.0 mi NW 11.5 mph - N/A   Clear
10:55 AM 52.3 °F - 31.5 °F 45% 30.16 in 10.0 mi NW 10.4 mph - N/A   Clear
11:15 AM 52.9 °F - 30.9 °F 43% 30.17 in 10.0 mi NW 15.0 mph 21.9 mph N/A   Clear
11:35 AM 53.2 °F - 31.3 °F 43% 30.17 in 10.0 mi NW 18.4 mph 24.2 mph N/A   Clear
11:55 AM 53.6 °F - 31.1 °F 42% 30.16 in 10.0 mi NW 19.6 mph 26.5 mph N/A   Clear
12:15 PM 54.9 °F - 32.0 °F 42% 30.17 in 10.0 mi NW 18.4 mph 23.0 mph N/A   Scattered Clouds
12:35 PM 55.4 °F - 31.5 °F 40% 30.16 in 10.0 mi NW 16.1 mph - N/A   Scattered Clouds
12:55 PM 54.9 °F - 31.1 °F 40% 30.16 in 10.0 mi NW 17.3 mph 23.0 mph N/A   Mostly Cloudy
1:15 PM 55.6 °F - 31.1 °F 39% 30.17 in 10.0 mi NW 20.7 mph 24.2 mph N/A   Mostly Cloudy
1:35 PM 54.9 °F - 31.1 °F 40% 30.17 in 10.0 mi NW 18.4 mph 24.2 mph N/A   Scattered Clouds
1:55 PM 54.1 °F - 30.6 °F 41% 30.18 in 10.0 mi WNW 16.1 mph 23.0 mph N/A   Clear
2:15 PM 54.7 °F - 31.5 °F 41% 30.18 in 10.0 mi NW 11.5 mph 23.0 mph N/A   Scattered Clouds
2:35 PM 54.5 °F - 30.9 °F 41% 30.19 in 10.0 mi NW 15.0 mph 19.6 mph N/A   Scattered Clouds
2:55 PM 54.1 °F - 30.6 °F 41% 30.19 in 10.0 mi NW 16.1 mph 21.9 mph N/A   Clear
3:15 PM 54.1 °F - 30.4 °F 40% 30.19 in 10.0 mi NW 15.0 mph 18.4 mph N/A   Clear
3:35 PM 53.6 °F - 30.0 °F 41% 30.20 in 10.0 mi NW 15.0 mph - N/A   Clear
3:55 PM 53.6 °F - 30.6 °F 41% 30.21 in 10.0 mi NW 12.7 mph 16.1 mph N/A   Clear
4:15 PM 52.9 °F - 29.8 °F 41% 30.21 in 10.0 mi NW 15.0 mph - N/A   Clear
4:35 PM 51.3 °F - 30.4 °F 45% 30.22 in 10.0 mi NNW 11.5 mph - N/A   Clear
4:55 PM 49.3 °F - 30.7 °F 49% 30.22 in 10.0 mi NNW 9.2 mph - N/A   Clear
5:15 PM 46.2 °F 42.2 °F 30.2 °F 54% 30.23 in 10.0 mi NNW 8.1 mph - N/A   Clear
5:35 PM 44.2 °F 39.7 °F 30.2 °F 58% 30.24 in 10.0 mi NW 8.1 mph - N/A   Scattered Clouds
5:55 PM 41.7 °F 37.3 °F 29.3 °F 61% 30.25 in 10.0 mi NNW 6.9 mph - N/A   Scattered Clouds
6:15 PM 41.4 °F 35.7 °F 28.4 °F 60% 30.26 in 10.0 mi NW 9.2 mph - N/A   Clear
6:35 PM 41.2 °F 35.5 °F 28.2 °F 60% 30.27 in 10.0 mi NNW 9.2 mph - N/A   Mostly Cloudy
6:55 PM 41.9 °F 36.3 °F 28.0 °F 58% 30.28 in 10.0 mi NW 9.2 mph - N/A   Overcast
7:15 PM 42.8 °F 37.0 °F 27.5 °F 55% 30.28 in 10.0 mi NNW 10.4 mph - N/A   Overcast
7:35 PM 43.2 °F 38.4 °F 27.1 °F 53% 30.30 in 10.0 mi NNW 8.1 mph - N/A   Overcast
8:35 PM 41.7 °F 35.6 °F 26.4 °F 55% 30.31 in 10.0 mi North 10.4 mph - N/A   Overcast
8:55 PM 41.2 °F 35.5 °F 26.4 °F 56% 30.32 in 10.0 mi North 9.2 mph - N/A   Overcast
9:15 PM 40.1 °F 36.1 °F 26.6 °F 59% 30.33 in 10.0 mi North 5.8 mph - N/A   Mostly Cloudy
9:35 PM 38.5 °F 32.1 °F 26.6 °F 62% 30.33 in 10.0 mi North 9.2 mph - N/A   Mostly Cloudy
9:55 PM 38.3 °F 33.2 °F 26.6 °F 63% 30.34 in 10.0 mi North 6.9 mph - N/A   Mostly Cloudy
10:15 PM 39.4 °F 34.5 °F 25.5 °F 58% 30.34 in 10.0 mi North 6.9 mph - N/A   Mostly Cloudy
10:35 PM 39.2 °F 34.2 °F 25.7 °F 58% 30.34 in 10.0 mi North 6.9 mph - N/A   Mostly Cloudy
10:55 PM 39.2 °F 33.6 °F 25.2 °F 57% 30.35 in 10.0 mi North 8.1 mph - N/A   Overcast
11:15 PM 39.2 °F 37.0 °F 25.5 °F 58% 30.35 in 10.0 mi North 3.5 mph - N/A   Mostly Cloudy
11:35 PM 38.5 °F 34.1 °F 25.7 °F 60% 30.35 in 10.0 mi NNE 5.8 mph - N/A   Clear
11:55 PM 38.3 °F - 25.7 °F 61% 30.35 in 10.0 mi Calm Calm - N/A   Clear